sensor_id;sensor_type;location;lat;lon;timestamp;P1;durP1;ratioP1;P2;durP2;ratioP2
80225;SDS011;69538;42.000;21.452;2023-06-22T00:02:00;21.17;;;16.25;;
80225;SDS011;69538;42.000;21.452;2023-06-22T00:04:27;27.08;;;16.75;;
80225;SDS011;69538;42.000;21.452;2023-06-22T00:06:53;22.38;;;16.33;;
80225;SDS011;69538;42.000;21.452;2023-06-22T00:09:19;21.70;;;15.93;;
80225;SDS011;69538;42.000;21.452;2023-06-22T00:11:45;23.75;;;15.88;;
80225;SDS011;69538;42.000;21.452;2023-06-22T00:14:11;21.02;;;16.00;;
80225;SDS011;69538;42.000;21.452;2023-06-22T00:16:38;23.73;;;16.60;;
80225;SDS011;69538;42.000;21.452;2023-06-22T00:19:04;20.10;;;16.48;;
80225;SDS011;69538;42.000;21.452;2023-06-22T00:21:30;20.73;;;16.38;;
80225;SDS011;69538;42.000;21.452;2023-06-22T00:23:56;22.00;;;16.75;;
80225;SDS011;69538;42.000;21.452;2023-06-22T00:26:23;23.13;;;15.57;;
80225;SDS011;69538;42.000;21.452;2023-06-22T00:28:49;23.95;;;15.18;;
80225;SDS011;69538;42.000;21.452;2023-06-22T00:31:15;19.13;;;15.45;;
80225;SDS011;69538;42.000;21.452;2023-06-22T00:33:42;22.17;;;14.68;;
80225;SDS011;69538;42.000;21.452;2023-06-22T00:36:08;20.08;;;14.13;;
80225;SDS011;69538;42.000;21.452;2023-06-22T00:38:38;22.02;;;15.48;;
80225;SDS011;69538;42.000;21.452;2023-06-22T00:41:06;21.00;;;13.48;;
80225;SDS011;69538;42.000;21.452;2023-06-22T00:43:32;19.17;;;13.60;;
80225;SDS011;69538;42.000;21.452;2023-06-22T00:45:59;19.65;;;14.15;;
80225;SDS011;69538;42.000;21.452;2023-06-22T00:48:25;21.63;;;14.57;;
80225;SDS011;69538;42.000;21.452;2023-06-22T00:50:51;19.33;;;14.38;;
80225;SDS011;69538;42.000;21.452;2023-06-22T00:53:20;21.17;;;13.52;;
80225;SDS011;69538;42.000;21.452;2023-06-22T00:55:48;20.73;;;13.95;;
80225;SDS011;69538;42.000;21.452;2023-06-22T00:58:17;19.60;;;14.55;;
80225;SDS011;69538;42.000;21.452;2023-06-22T01:00:47;22.23;;;14.68;;
80225;SDS011;69538;42.000;21.452;2023-06-22T01:03:13;20.35;;;14.52;;
80225;SDS011;69538;42.000;21.452;2023-06-22T01:05:39;22.88;;;15.65;;
80225;SDS011;69538;42.000;21.452;2023-06-22T01:08:16;23.50;;;14.50;;
80225;SDS011;69538;42.000;21.452;2023-06-22T01:10:46;21.17;;;14.98;;
80225;SDS011;69538;42.000;21.452;2023-06-22T01:13:20;19.88;;;15.23;;
80225;SDS011;69538;42.000;21.452;2023-06-22T01:16:00;20.92;;;15.05;;
80225;SDS011;69538;42.000;21.452;2023-06-22T01:18:28;21.02;;;15.30;;
80225;SDS011;69538;42.000;21.452;2023-06-22T01:20:56;23.33;;;15.48;;
80225;SDS011;69538;42.000;21.452;2023-06-22T01:31:13;21.13;;;15.15;;
80225;SDS011;69538;42.000;21.452;2023-06-22T01:33:42;27.05;;;16.00;;
80225;SDS011;69538;42.000;21.452;2023-06-22T01:36:08;25.17;;;16.08;;
80225;SDS011;69538;42.000;21.452;2023-06-22T01:38:35;21.77;;;15.70;;
80225;SDS011;69538;42.000;21.452;2023-06-22T01:41:02;22.95;;;15.80;;
80225;SDS011;69538;42.000;21.452;2023-06-22T01:43:28;22.83;;;16.27;;
80225;SDS011;69538;42.000;21.452;2023-06-22T01:45:55;21.95;;;15.63;;
80225;SDS011;69538;42.000;21.452;2023-06-22T01:48:22;23.05;;;15.93;;
80225;SDS011;69538;42.000;21.452;2023-06-22T01:50:48;24.63;;;16.02;;
80225;SDS011;69538;42.000;21.452;2023-06-22T01:53:14;23.30;;;16.15;;
80225;SDS011;69538;42.000;21.452;2023-06-22T01:55:41;24.70;;;17.23;;
80225;SDS011;69538;42.000;21.452;2023-06-22T01:58:07;25.30;;;17.83;;
80225;SDS011;69538;42.000;21.452;2023-06-22T02:00:35;27.20;;;17.40;;
80225;SDS011;69538;42.000;21.452;2023-06-22T02:03:05;24.05;;;17.90;;
80225;SDS011;69538;42.000;21.452;2023-06-22T02:05:36;25.02;;;17.45;;
80225;SDS011;69538;42.000;21.452;2023-06-22T02:08:13;23.40;;;16.52;;
80225;SDS011;69538;42.000;21.452;2023-06-22T02:10:43;26.48;;;17.08;;
80225;SDS011;69538;42.000;21.452;2023-06-22T02:13:10;23.35;;;16.67;;
80225;SDS011;69538;42.000;21.452;2023-06-22T02:15:37;23.30;;;16.58;;
80225;SDS011;69538;42.000;21.452;2023-06-22T02:18:03;23.83;;;17.20;;
80225;SDS011;69538;42.000;21.452;2023-06-22T02:20:30;29.15;;;17.70;;
80225;SDS011;69538;42.000;21.452;2023-06-22T02:22:56;23.08;;;16.50;;
80225;SDS011;69538;42.000;21.452;2023-06-22T02:25:22;25.52;;;17.25;;
80225;SDS011;69538;42.000;21.452;2023-06-22T02:27:48;24.27;;;17.58;;
80225;SDS011;69538;42.000;21.452;2023-06-22T02:30:14;22.88;;;16.77;;
80225;SDS011;69538;42.000;21.452;2023-06-22T02:32:41;25.77;;;17.10;;
80225;SDS011;69538;42.000;21.452;2023-06-22T02:35:08;23.95;;;17.35;;
80225;SDS011;69538;42.000;21.452;2023-06-22T02:37:37;23.42;;;17.05;;
80225;SDS011;69538;42.000;21.452;2023-06-22T02:40:06;26.48;;;17.05;;
80225;SDS011;69538;42.000;21.452;2023-06-22T02:42:34;26.10;;;17.40;;
80225;SDS011;69538;42.000;21.452;2023-06-22T02:45:00;26.85;;;17.85;;
80225;SDS011;69538;42.000;21.452;2023-06-22T02:47:27;25.05;;;16.90;;
80225;SDS011;69538;42.000;21.452;2023-06-22T02:49:53;22.92;;;17.23;;
80225;SDS011;69538;42.000;21.452;2023-06-22T02:52:19;25.92;;;18.23;;
80225;SDS011;69538;42.000;21.452;2023-06-22T02:54:45;24.55;;;17.08;;
80225;SDS011;69538;42.000;21.452;2023-06-22T02:57:12;23.30;;;16.52;;
80225;SDS011;69538;42.000;21.452;2023-06-22T02:59:39;20.83;;;15.27;;
80225;SDS011;69538;42.000;21.452;2023-06-22T03:02:07;25.98;;;17.50;;
80225;SDS011;69538;42.000;21.452;2023-06-22T03:04:34;23.77;;;15.75;;
80225;SDS011;69538;42.000;21.452;2023-06-22T03:07:00;25.50;;;17.85;;
80225;SDS011;69538;42.000;21.452;2023-06-22T03:09:27;24.08;;;16.80;;
80225;SDS011;69538;42.000;21.452;2023-06-22T03:11:56;23.33;;;15.70;;
80225;SDS011;69538;42.000;21.452;2023-06-22T03:14:23;20.52;;;16.15;;
80225;SDS011;69538;42.000;21.452;2023-06-22T03:16:49;22.52;;;17.42;;
80225;SDS011;69538;42.000;21.452;2023-06-22T03:19:15;23.85;;;16.25;;
80225;SDS011;69538;42.000;21.452;2023-06-22T03:21:41;23.75;;;16.17;;
80225;SDS011;69538;42.000;21.452;2023-06-22T03:24:08;21.63;;;16.48;;
80225;SDS011;69538;42.000;21.452;2023-06-22T03:26:34;24.05;;;16.50;;
80225;SDS011;69538;42.000;21.452;2023-06-22T03:29:00;24.98;;;16.30;;
80225;SDS011;69538;42.000;21.452;2023-06-22T03:31:26;21.50;;;15.23;;
80225;SDS011;69538;42.000;21.452;2023-06-22T03:33:52;21.88;;;17.08;;
80225;SDS011;69538;42.000;21.452;2023-06-22T03:36:19;23.42;;;16.90;;
80225;SDS011;69538;42.000;21.452;2023-06-22T03:38:45;24.45;;;16.45;;
80225;SDS011;69538;42.000;21.452;2023-06-22T03:41:11;21.40;;;16.42;;
80225;SDS011;69538;42.000;21.452;2023-06-22T03:43:38;22.02;;;15.60;;
80225;SDS011;69538;42.000;21.452;2023-06-22T03:46:04;22.00;;;15.43;;
80225;SDS011;69538;42.000;21.452;2023-06-22T03:48:30;20.80;;;14.98;;
80225;SDS011;69538;42.000;21.452;2023-06-22T03:50:58;21.90;;;16.08;;
80225;SDS011;69538;42.000;21.452;2023-06-22T03:53:24;20.13;;;15.10;;
80225;SDS011;69538;42.000;21.452;2023-06-22T03:55:52;20.65;;;15.20;;
80225;SDS011;69538;42.000;21.452;2023-06-22T03:58:18;23.67;;;16.92;;
80225;SDS011;69538;42.000;21.452;2023-06-22T04:00:48;24.15;;;15.73;;
80225;SDS011;69538;42.000;21.452;2023-06-22T04:03:15;21.38;;;15.57;;
80225;SDS011;69538;42.000;21.452;2023-06-22T04:05:43;24.08;;;16.05;;
80225;SDS011;69538;42.000;21.452;2023-06-22T04:08:09;22.35;;;15.45;;
80225;SDS011;69538;42.000;21.452;2023-06-22T04:10:35;21.13;;;15.00;;
80225;SDS011;69538;42.000;21.452;2023-06-22T04:13:02;21.20;;;16.10;;
80225;SDS011;69538;42.000;21.452;2023-06-22T04:15:28;23.08;;;17.73;;
80225;SDS011;69538;42.000;21.452;2023-06-22T04:17:54;25.67;;;15.60;;
80225;SDS011;69538;42.000;21.452;2023-06-22T04:20:21;23.08;;;16.33;;
80225;SDS011;69538;42.000;21.452;2023-06-22T04:22:47;27.70;;;17.27;;
80225;SDS011;69538;42.000;21.452;2023-06-22T04:25:13;25.48;;;16.33;;
80225;SDS011;69538;42.000;21.452;2023-06-22T04:27:39;22.98;;;15.68;;
80225;SDS011;69538;42.000;21.452;2023-06-22T04:30:06;20.70;;;15.57;;
80225;SDS011;69538;42.000;21.452;2023-06-22T04:32:33;22.23;;;15.35;;
80225;SDS011;69538;42.000;21.452;2023-06-22T04:35:01;21.15;;;15.02;;
80225;SDS011;69538;42.000;21.452;2023-06-22T04:37:29;20.73;;;15.98;;
80225;SDS011;69538;42.000;21.452;2023-06-22T04:39:55;21.85;;;15.25;;
80225;SDS011;69538;42.000;21.452;2023-06-22T04:42:21;24.45;;;15.40;;
80225;SDS011;69538;42.000;21.452;2023-06-22T04:44:48;20.17;;;14.63;;
80225;SDS011;69538;42.000;21.452;2023-06-22T04:47:14;23.00;;;15.77;;
80225;SDS011;69538;42.000;21.452;2023-06-22T04:49:40;27.90;;;17.13;;
80225;SDS011;69538;42.000;21.452;2023-06-22T04:52:09;22.95;;;15.32;;
80225;SDS011;69538;42.000;21.452;2023-06-22T04:54:36;23.75;;;15.68;;
80225;SDS011;69538;42.000;21.452;2023-06-22T04:57:03;20.67;;;15.15;;
80225;SDS011;69538;42.000;21.452;2023-06-22T04:59:34;25.55;;;16.35;;
80225;SDS011;69538;42.000;21.452;2023-06-22T05:02:01;22.73;;;15.88;;
80225;SDS011;69538;42.000;21.452;2023-06-22T05:04:28;21.70;;;15.05;;
80225;SDS011;69538;42.000;21.452;2023-06-22T05:06:58;23.77;;;15.85;;
80225;SDS011;69538;42.000;21.452;2023-06-22T05:09:25;24.10;;;16.05;;
80225;SDS011;69538;42.000;21.452;2023-06-22T05:11:51;23.95;;;15.73;;
80225;SDS011;69538;42.000;21.452;2023-06-22T05:14:18;21.42;;;15.15;;
80225;SDS011;69538;42.000;21.452;2023-06-22T05:16:46;25.83;;;16.33;;
80225;SDS011;69538;42.000;21.452;2023-06-22T05:19:12;22.10;;;15.38;;
80225;SDS011;69538;42.000;21.452;2023-06-22T05:21:38;24.55;;;16.50;;
80225;SDS011;69538;42.000;21.452;2023-06-22T05:24:05;19.45;;;15.57;;
80225;SDS011;69538;42.000;21.452;2023-06-22T05:26:32;21.45;;;15.88;;
80225;SDS011;69538;42.000;21.452;2023-06-22T05:28:59;25.23;;;16.45;;
80225;SDS011;69538;42.000;21.452;2023-06-22T05:31:25;19.65;;;14.98;;
80225;SDS011;69538;42.000;21.452;2023-06-22T05:33:53;26.55;;;16.13;;
80225;SDS011;69538;42.000;21.452;2023-06-22T05:36:19;20.63;;;15.27;;
80225;SDS011;69538;42.000;21.452;2023-06-22T05:38:46;23.45;;;18.10;;
80225;SDS011;69538;42.000;21.452;2023-06-22T05:41:13;28.67;;;20.63;;
80225;SDS011;69538;42.000;21.452;2023-06-22T05:43:39;22.08;;;15.20;;
80225;SDS011;69538;42.000;21.452;2023-06-22T05:46:06;20.48;;;14.43;;
80225;SDS011;69538;42.000;21.452;2023-06-22T05:48:32;22.17;;;15.25;;
80225;SDS011;69538;42.000;21.452;2023-06-22T05:50:58;25.83;;;15.27;;
80225;SDS011;69538;42.000;21.452;2023-06-22T05:53:24;23.98;;;17.50;;
80225;SDS011;69538;42.000;21.452;2023-06-22T05:55:51;35.63;;;26.80;;
80225;SDS011;69538;42.000;21.452;2023-06-22T05:58:17;28.13;;;20.42;;
80225;SDS011;69538;42.000;21.452;2023-06-22T06:00:43;22.30;;;14.68;;
80225;SDS011;69538;42.000;21.452;2023-06-22T06:03:10;45.70;;;32.22;;
80225;SDS011;69538;42.000;21.452;2023-06-22T06:05:36;25.02;;;16.02;;
80225;SDS011;69538;42.000;21.452;2023-06-22T06:08:03;34.10;;;25.00;;
80225;SDS011;69538;42.000;21.452;2023-06-22T06:10:30;22.63;;;14.38;;
80225;SDS011;69538;42.000;21.452;2023-06-22T06:12:57;20.67;;;14.73;;
80225;SDS011;69538;42.000;21.452;2023-06-22T06:15:23;29.05;;;15.27;;
80225;SDS011;69538;42.000;21.452;2023-06-22T06:17:50;26.27;;;18.58;;
80225;SDS011;69538;42.000;21.452;2023-06-22T06:20:18;23.73;;;16.75;;
80225;SDS011;69538;42.000;21.452;2023-06-22T06:22:44;21.65;;;15.45;;
80225;SDS011;69538;42.000;21.452;2023-06-22T06:25:11;43.72;;;32.22;;
80225;SDS011;69538;42.000;21.452;2023-06-22T06:27:44;19.58;;;15.25;;
80225;SDS011;69538;42.000;21.452;2023-06-22T06:30:10;25.85;;;20.23;;
80225;SDS011;69538;42.000;21.452;2023-06-22T06:32:41;23.40;;;14.77;;
80225;SDS011;69538;42.000;21.452;2023-06-22T06:35:13;23.88;;;15.18;;
80225;SDS011;69538;42.000;21.452;2023-06-22T06:37:41;21.70;;;15.25;;
80225;SDS011;69538;42.000;21.452;2023-06-22T06:40:08;29.05;;;14.25;;
80225;SDS011;69538;42.000;21.452;2023-06-22T06:45:03;28.63;;;20.27;;
80225;SDS011;69538;42.000;21.452;2023-06-22T06:47:29;27.65;;;16.80;;
80225;SDS011;69538;42.000;21.452;2023-06-22T06:49:56;25.08;;;15.80;;
80225;SDS011;69538;42.000;21.452;2023-06-22T06:52:22;24.63;;;15.23;;
80225;SDS011;69538;42.000;21.452;2023-06-22T06:54:48;45.47;;;34.17;;
80225;SDS011;69538;42.000;21.452;2023-06-22T06:57:16;44.55;;;32.38;;
80225;SDS011;69538;42.000;21.452;2023-06-22T06:59:42;26.45;;;20.45;;
80225;SDS011;69538;42.000;21.452;2023-06-22T07:02:09;24.70;;;15.95;;
80225;SDS011;69538;42.000;21.452;2023-06-22T07:04:35;25.08;;;14.48;;
80225;SDS011;69538;42.000;21.452;2023-06-22T07:07:01;29.10;;;17.42;;
80225;SDS011;69538;42.000;21.452;2023-06-22T07:09:28;43.47;;;32.53;;
80225;SDS011;69538;42.000;21.452;2023-06-22T07:11:54;27.95;;;16.92;;
80225;SDS011;69538;42.000;21.452;2023-06-22T07:14:20;27.13;;;16.30;;
80225;SDS011;69538;42.000;21.452;2023-06-22T07:16:46;25.60;;;18.00;;
80225;SDS011;69538;42.000;21.452;2023-06-22T07:19:12;21.92;;;14.82;;
80225;SDS011;69538;42.000;21.452;2023-06-22T07:21:39;44.40;;;33.22;;
80225;SDS011;69538;42.000;21.452;2023-06-22T07:24:05;20.95;;;15.07;;
80225;SDS011;69538;42.000;21.452;2023-06-22T07:26:32;22.35;;;16.33;;
80225;SDS011;69538;42.000;21.452;2023-06-22T07:29:00;18.25;;;15.00;;
80225;SDS011;69538;42.000;21.452;2023-06-22T07:31:27;26.48;;;18.20;;
80225;SDS011;69538;42.000;21.452;2023-06-22T07:33:53;42.63;;;32.15;;
80225;SDS011;69538;42.000;21.452;2023-06-22T07:36:19;24.13;;;16.38;;
80225;SDS011;69538;42.000;21.452;2023-06-22T07:38:45;40.65;;;29.27;;
80225;SDS011;69538;42.000;21.452;2023-06-22T07:41:11;30.15;;;17.85;;
80225;SDS011;69538;42.000;21.452;2023-06-22T07:43:37;27.35;;;18.85;;
80225;SDS011;69538;42.000;21.452;2023-06-22T07:46:04;28.17;;;16.77;;
80225;SDS011;69538;42.000;21.452;2023-06-22T07:48:30;21.52;;;16.65;;
80225;SDS011;69538;42.000;21.452;2023-06-22T07:50:56;31.25;;;21.48;;
80225;SDS011;69538;42.000;21.452;2023-06-22T07:53:22;36.42;;;24.98;;
80225;SDS011;69538;42.000;21.452;2023-06-22T07:55:49;22.67;;;16.35;;
80225;SDS011;69538;42.000;21.452;2023-06-22T07:58:15;19.42;;;15.30;;
80225;SDS011;69538;42.000;21.452;2023-06-22T08:00:44;22.23;;;14.63;;
80225;SDS011;69538;42.000;21.452;2023-06-22T08:03:10;38.65;;;18.02;;
80225;SDS011;69538;42.000;21.452;2023-06-22T08:05:36;27.25;;;22.00;;
80225;SDS011;69538;42.000;21.452;2023-06-22T08:08:02;25.27;;;16.20;;
80225;SDS011;69538;42.000;21.452;2023-06-22T08:10:28;25.13;;;16.38;;
80225;SDS011;69538;42.000;21.452;2023-06-22T08:12:54;25.80;;;16.90;;
80225;SDS011;69538;42.000;21.452;2023-06-22T08:15:21;26.52;;;18.60;;
80225;SDS011;69538;42.000;21.452;2023-06-22T08:17:47;22.48;;;16.85;;
80225;SDS011;69538;42.000;21.452;2023-06-22T08:20:13;27.65;;;16.55;;
80225;SDS011;69538;42.000;21.452;2023-06-22T08:22:40;38.35;;;29.33;;
80225;SDS011;69538;42.000;21.452;2023-06-22T08:25:06;28.02;;;21.65;;
80225;SDS011;69538;42.000;21.452;2023-06-22T08:27:32;17.83;;;14.30;;
80225;SDS011;69538;42.000;21.452;2023-06-22T08:29:59;29.23;;;16.02;;
80225;SDS011;69538;42.000;21.452;2023-06-22T08:32:26;29.40;;;22.30;;
80225;SDS011;69538;42.000;21.452;2023-06-22T08:34:53;28.08;;;20.35;;
80225;SDS011;69538;42.000;21.452;2023-06-22T08:37:19;26.30;;;20.55;;
80225;SDS011;69538;42.000;21.452;2023-06-22T08:39:46;19.45;;;15.60;;
80225;SDS011;69538;42.000;21.452;2023-06-22T08:42:12;23.73;;;19.67;;
80225;SDS011;69538;42.000;21.452;2023-06-22T08:44:38;23.55;;;16.92;;
80225;SDS011;69538;42.000;21.452;2023-06-22T08:47:05;18.80;;;14.80;;
80225;SDS011;69538;42.000;21.452;2023-06-22T08:49:31;21.33;;;14.05;;
80225;SDS011;69538;42.000;21.452;2023-06-22T08:51:57;18.67;;;13.40;;
80225;SDS011;69538;42.000;21.452;2023-06-22T08:54:23;21.08;;;14.88;;
80225;SDS011;69538;42.000;21.452;2023-06-22T08:56:49;20.02;;;14.52;;
80225;SDS011;69538;42.000;21.452;2023-06-22T08:59:16;21.27;;;15.98;;
80225;SDS011;69538;42.000;21.452;2023-06-22T09:01:42;19.02;;;13.95;;
80225;SDS011;69538;42.000;21.452;2023-06-22T09:04:10;18.52;;;13.80;;
80225;SDS011;69538;42.000;21.452;2023-06-22T09:06:37;19.50;;;15.00;;
80225;SDS011;69538;42.000;21.452;2023-06-22T09:09:09;18.60;;;12.45;;
80225;SDS011;69538;42.000;21.452;2023-06-22T09:11:36;18.92;;;12.55;;
80225;SDS011;69538;42.000;21.452;2023-06-22T09:14:02;15.85;;;12.60;;
80225;SDS011;69538;42.000;21.452;2023-06-22T09:16:29;20.08;;;13.25;;
80225;SDS011;69538;42.000;21.452;2023-06-22T09:18:55;19.13;;;13.30;;
80225;SDS011;69538;42.000;21.452;2023-06-22T09:21:21;19.90;;;13.20;;
80225;SDS011;69538;42.000;21.452;2023-06-22T09:23:47;17.83;;;12.27;;
80225;SDS011;69538;42.000;21.452;2023-06-22T09:26:16;16.80;;;12.70;;
80225;SDS011;69538;42.000;21.452;2023-06-22T09:28:43;20.80;;;12.43;;
80225;SDS011;69538;42.000;21.452;2023-06-22T09:31:09;17.45;;;11.98;;
80225;SDS011;69538;42.000;21.452;2023-06-22T09:33:35;14.88;;;10.40;;
80225;SDS011;69538;42.000;21.452;2023-06-22T09:36:04;13.63;;;10.50;;
80225;SDS011;69538;42.000;21.452;2023-06-22T09:38:34;16.38;;;12.05;;
80225;SDS011;69538;42.000;21.452;2023-06-22T09:41:00;17.88;;;11.43;;
80225;SDS011;69538;42.000;21.452;2023-06-22T09:43:27;18.48;;;11.95;;
80225;SDS011;69538;42.000;21.452;2023-06-22T09:45:53;16.48;;;11.25;;
80225;SDS011;69538;42.000;21.452;2023-06-22T09:48:19;14.85;;;9.43;;
80225;SDS011;69538;42.000;21.452;2023-06-22T09:50:46;12.10;;;9.18;;
80225;SDS011;69538;42.000;21.452;2023-06-22T09:53:12;15.00;;;11.00;;
80225;SDS011;69538;42.000;21.452;2023-06-22T09:55:38;12.75;;;9.75;;
80225;SDS011;69538;42.000;21.452;2023-06-22T09:58:04;13.57;;;9.93;;
80225;SDS011;69538;42.000;21.452;2023-06-22T10:00:30;13.73;;;10.15;;
80225;SDS011;69538;42.000;21.452;2023-06-22T10:02:57;13.98;;;10.75;;
80225;SDS011;69538;42.000;21.452;2023-06-22T10:05:23;14.40;;;11.90;;
80225;SDS011;69538;42.000;21.452;2023-06-22T10:07:50;16.17;;;10.10;;
80225;SDS011;69538;42.000;21.452;2023-06-22T10:10:16;23.27;;;11.85;;
80225;SDS011;69538;42.000;21.452;2023-06-22T10:12:45;22.25;;;11.18;;
80225;SDS011;69538;42.000;21.452;2023-06-22T10:15:11;14.30;;;9.80;;
80225;SDS011;69538;42.000;21.452;2023-06-22T10:17:37;14.85;;;9.57;;
80225;SDS011;69538;42.000;21.452;2023-06-22T10:20:05;12.23;;;9.20;;
80225;SDS011;69538;42.000;21.452;2023-06-22T10:22:37;15.13;;;10.57;;
80225;SDS011;69538;42.000;21.452;2023-06-22T10:27:30;13.35;;;10.25;;
80225;SDS011;69538;42.000;21.452;2023-06-22T10:29:56;15.15;;;10.07;;
80225;SDS011;69538;42.000;21.452;2023-06-22T10:32:22;16.60;;;11.32;;
80225;SDS011;69538;42.000;21.452;2023-06-22T10:34:49;19.50;;;9.93;;
80225;SDS011;69538;42.000;21.452;2023-06-22T10:37:15;15.80;;;10.73;;
80225;SDS011;69538;42.000;21.452;2023-06-22T10:39:41;15.30;;;10.38;;
80225;SDS011;69538;42.000;21.452;2023-06-22T10:42:07;14.45;;;10.10;;
80225;SDS011;69538;42.000;21.452;2023-06-22T10:44:33;13.60;;;9.90;;
80225;SDS011;69538;42.000;21.452;2023-06-22T10:47:00;15.95;;;10.50;;
80225;SDS011;69538;42.000;21.452;2023-06-22T10:49:26;12.65;;;9.07;;
80225;SDS011;69538;42.000;21.452;2023-06-22T10:51:54;16.98;;;9.75;;
80225;SDS011;69538;42.000;21.452;2023-06-22T10:54:20;13.23;;;9.07;;
80225;SDS011;69538;42.000;21.452;2023-06-22T10:56:47;13.88;;;9.02;;
80225;SDS011;69538;42.000;21.452;2023-06-22T10:59:13;12.18;;;9.20;;
80225;SDS011;69538;42.000;21.452;2023-06-22T11:01:42;14.52;;;9.32;;
80225;SDS011;69538;42.000;21.452;2023-06-22T11:04:08;16.92;;;9.77;;
80225;SDS011;69538;42.000;21.452;2023-06-22T11:06:34;12.27;;;9.13;;
80225;SDS011;69538;42.000;21.452;2023-06-22T11:09:00;16.58;;;9.20;;
80225;SDS011;69538;42.000;21.452;2023-06-22T11:11:28;13.25;;;9.45;;
80225;SDS011;69538;42.000;21.452;2023-06-22T11:13:55;12.32;;;9.32;;
80225;SDS011;69538;42.000;21.452;2023-06-22T11:16:21;12.32;;;9.93;;
80225;SDS011;69538;42.000;21.452;2023-06-22T11:18:47;12.05;;;9.32;;
80225;SDS011;69538;42.000;21.452;2023-06-22T11:21:13;12.48;;;9.55;;
80225;SDS011;69538;42.000;21.452;2023-06-22T11:23:39;12.45;;;10.43;;
80225;SDS011;69538;42.000;21.452;2023-06-22T11:26:05;16.55;;;10.68;;
80225;SDS011;69538;42.000;21.452;2023-06-22T11:28:32;14.93;;;9.68;;
80225;SDS011;69538;42.000;21.452;2023-06-22T11:30:58;12.35;;;9.45;;
80225;SDS011;69538;42.000;21.452;2023-06-22T11:33:24;16.98;;;9.68;;
80225;SDS011;69538;42.000;21.452;2023-06-22T11:35:50;13.88;;;10.30;;
80225;SDS011;69538;42.000;21.452;2023-06-22T11:38:16;11.95;;;10.05;;
80225;SDS011;69538;42.000;21.452;2023-06-22T11:40:43;12.68;;;9.93;;
80225;SDS011;69538;42.000;21.452;2023-06-22T11:43:09;15.25;;;9.88;;
80225;SDS011;69538;42.000;21.452;2023-06-22T11:45:36;16.60;;;10.13;;
80225;SDS011;69538;42.000;21.452;2023-06-22T11:48:02;12.27;;;10.25;;
80225;SDS011;69538;42.000;21.452;2023-06-22T11:50:28;11.65;;;9.02;;
80225;SDS011;69538;42.000;21.452;2023-06-22T11:52:55;12.77;;;9.75;;
80225;SDS011;69538;42.000;21.452;2023-06-22T11:55:21;15.35;;;10.25;;
80225;SDS011;69538;42.000;21.452;2023-06-22T11:57:56;10.23;;;9.18;;
80225;SDS011;69538;42.000;21.452;2023-06-22T12:00:28;12.20;;;9.43;;
80225;SDS011;69538;42.000;21.452;2023-06-22T12:02:55;14.80;;;10.55;;
80225;SDS011;69538;42.000;21.452;2023-06-22T12:05:21;14.18;;;9.95;;
80225;SDS011;69538;42.000;21.452;2023-06-22T12:07:49;12.40;;;8.13;;
80225;SDS011;69538;42.000;21.452;2023-06-22T12:10:22;10.38;;;8.82;;
80225;SDS011;69538;42.000;21.452;2023-06-22T12:12:49;12.73;;;8.57;;
80225;SDS011;69538;42.000;21.452;2023-06-22T12:15:16;11.98;;;8.35;;
80225;SDS011;69538;42.000;21.452;2023-06-22T12:17:42;11.10;;;8.60;;
80225;SDS011;69538;42.000;21.452;2023-06-22T12:20:08;13.32;;;9.07;;
80225;SDS011;69538;42.000;21.452;2023-06-22T12:22:35;10.95;;;8.38;;
80225;SDS011;69538;42.000;21.452;2023-06-22T12:25:03;7.68;;;6.80;;
80225;SDS011;69538;42.000;21.452;2023-06-22T12:27:29;14.35;;;7.40;;
80225;SDS011;69538;42.000;21.452;2023-06-22T12:29:56;8.27;;;6.75;;
80225;SDS011;69538;42.000;21.452;2023-06-22T12:32:22;11.27;;;6.40;;
80225;SDS011;69538;42.000;21.452;2023-06-22T12:34:48;14.30;;;6.90;;
80225;SDS011;69538;42.000;21.452;2023-06-22T12:37:14;8.43;;;6.55;;
80225;SDS011;69538;42.000;21.452;2023-06-22T12:39:41;9.13;;;6.45;;
80225;SDS011;69538;42.000;21.452;2023-06-22T12:42:07;8.25;;;6.25;;
80225;SDS011;69538;42.000;21.452;2023-06-22T12:44:34;10.63;;;6.93;;
80225;SDS011;69538;42.000;21.452;2023-06-22T12:47:01;10.95;;;6.43;;
80225;SDS011;69538;42.000;21.452;2023-06-22T12:49:27;8.70;;;6.35;;
80225;SDS011;69538;42.000;21.452;2023-06-22T12:51:53;6.40;;;5.53;;
80225;SDS011;69538;42.000;21.452;2023-06-22T12:54:19;8.45;;;5.85;;
80225;SDS011;69538;42.000;21.452;2023-06-22T12:56:45;7.75;;;6.47;;
80225;SDS011;69538;42.000;21.452;2023-06-22T12:59:15;8.43;;;5.78;;
80225;SDS011;69538;42.000;21.452;2023-06-22T13:04:33;7.65;;;5.50;;
80225;SDS011;69538;42.000;21.452;2023-06-22T13:06:59;7.35;;;5.85;;
80225;SDS011;69538;42.000;21.452;2023-06-22T13:09:26;6.97;;;5.22;;
80225;SDS011;69538;42.000;21.452;2023-06-22T13:11:52;8.07;;;6.20;;
80225;SDS011;69538;42.000;21.452;2023-06-22T13:14:18;6.65;;;5.22;;
80225;SDS011;69538;42.000;21.452;2023-06-22T13:16:44;16.88;;;5.78;;
80225;SDS011;69538;42.000;21.452;2023-06-22T13:19:11;8.50;;;4.95;;
80225;SDS011;69538;42.000;21.452;2023-06-22T13:21:37;9.70;;;5.07;;
80225;SDS011;69538;42.000;21.452;2023-06-22T13:24:03;9.32;;;5.28;;
80225;SDS011;69538;42.000;21.452;2023-06-22T13:26:31;8.75;;;5.45;;
80225;SDS011;69538;42.000;21.452;2023-06-22T13:28:57;8.45;;;5.40;;
80225;SDS011;69538;42.000;21.452;2023-06-22T13:31:23;9.57;;;5.40;;
80225;SDS011;69538;42.000;21.452;2023-06-22T13:33:50;7.90;;;5.10;;
80225;SDS011;69538;42.000;21.452;2023-06-22T13:38:43;8.90;;;5.18;;
80225;SDS011;69538;42.000;21.452;2023-06-22T13:41:09;8.90;;;5.32;;
80225;SDS011;69538;42.000;21.452;2023-06-22T13:43:35;12.25;;;5.70;;
80225;SDS011;69538;42.000;21.452;2023-06-22T13:46:02;8.13;;;5.00;;
80225;SDS011;69538;42.000;21.452;2023-06-22T13:48:28;12.55;;;5.32;;
80225;SDS011;69538;42.000;21.452;2023-06-22T13:50:54;8.55;;;5.85;;
80225;SDS011;69538;42.000;21.452;2023-06-22T13:53:20;6.53;;;4.75;;
80225;SDS011;69538;42.000;21.452;2023-06-22T13:55:46;9.60;;;4.80;;
80225;SDS011;69538;42.000;21.452;2023-06-22T13:58:13;5.75;;;4.45;;
80225;SDS011;69538;42.000;21.452;2023-06-22T14:00:39;6.65;;;4.85;;
80225;SDS011;69538;42.000;21.452;2023-06-22T14:03:05;7.45;;;5.18;;
80225;SDS011;69538;42.000;21.452;2023-06-22T14:05:31;7.68;;;4.68;;
80225;SDS011;69538;42.000;21.452;2023-06-22T14:07:58;7.65;;;4.20;;
80225;SDS011;69538;42.000;21.452;2023-06-22T14:10:24;10.68;;;4.95;;
80225;SDS011;69538;42.000;21.452;2023-06-22T14:12:50;6.82;;;4.50;;
80225;SDS011;69538;42.000;21.452;2023-06-22T14:15:18;6.45;;;4.38;;
80225;SDS011;69538;42.000;21.452;2023-06-22T14:17:44;8.68;;;5.10;;
80225;SDS011;69538;42.000;21.452;2023-06-22T14:20:10;6.65;;;4.20;;
80225;SDS011;69538;42.000;21.452;2023-06-22T14:22:36;8.80;;;4.72;;
80225;SDS011;69538;42.000;21.452;2023-06-22T14:25:04;12.05;;;8.00;;
80225;SDS011;69538;42.000;21.452;2023-06-22T14:29:56;10.48;;;8.70;;
80225;SDS011;69538;42.000;21.452;2023-06-22T14:32:22;12.65;;;9.38;;